Time;durP1;ratioP1;P1;durP2;ratioP2;P2;SDS_P1;SDS_P2;PMS_P1;PMS_P2;Temp;Humidity;BMP_temperature;BMP_pressure;BME280_temperature;BME280_humidity;BME280_pressure;Samples;Min_cycle;Max_cycle;Signal;HPM_P1;HPM_P2
2024/01/03 00:00:15;;;;;;;43.33;21.67;;;;;;;4.61;100.00;97044.97;5078115;28;20034;-82
2024/01/03 00:02:43;;;;;;;48.00;21.85;;;;;;;4.62;100.00;97031.63;5094727;28;20055;-83
2024/01/03 00:05:09;;;;;;;61.97;29.77;;;;;;;4.65;100.00;97020.03;5077521;28;20043;-82
2024/01/03 00:07:34;;;;;;;59.22;26.23;;;;;;;4.76;100.00;97037.16;5077732;28;20426;-82
2024/01/03 00:10:23;;;;;;;58.28;26.70;;;;;;;4.82;100.00;97034.22;5077642;28;20027;-81
2024/01/03 00:12:52;;;;;;;37.33;18.10;;;;;;;4.77;100.00;97038.00;5111903;28;20038;-81
2024/01/03 00:15:36;;;;;;;38.83;17.63;;;;;;;4.74;100.00;97035.50;5077491;28;20039;-83
2024/01/03 00:18:06;;;;;;;29.27;15.25;;;;;;;4.59;100.00;97037.06;5094317;28;20024;-82
2024/01/03 00:20:40;;;;;;;29.52;14.00;;;;;;;4.60;100.00;97033.50;5077734;28;20028;-82
2024/01/03 00:23:10;;;;;;;33.92;17.05;;;;;;;4.62;100.00;97036.06;5077548;28;20516;-83
2024/01/03 00:25:36;;;;;;;39.67;16.42;;;;;;;4.57;100.00;97036.31;5077606;28;20059;-83
2024/01/03 00:28:01;;;;;;;33.83;16.15;;;;;;;4.53;100.00;97029.41;5077424;28;20483;-82
2024/01/03 00:30:30;;;;;;;34.65;16.92;;;;;;;4.55;100.00;97024.94;5077277;28;20032;-83
2024/01/03 00:32:56;;;;;;;35.35;18.02;;;;;;;4.66;100.00;97049.13;5094481;28;20019;-81
2024/01/03 00:35:30;;;;;;;34.50;16.30;;;;;;;4.76;100.00;97033.66;5077085;28;20490;-81
2024/01/03 00:37:56;;;;;;;27.67;14.27;;;;;;;4.92;100.00;97037.31;5076289;28;20042;-80
2024/01/03 00:40:31;;;;;;;36.17;16.27;;;;;;;5.12;100.00;97060.16;5077079;28;20052;-82
2024/01/03 00:42:56;;;;;;;30.10;14.20;;;;;;;5.20;100.00;97052.72;5112292;28;20552;-83
2024/01/03 00:45:22;;;;;;;29.83;12.90;;;;;;;5.23;100.00;97047.28;5076929;28;20040;-82
2024/01/03 00:47:48;;;;;;;28.75;14.48;;;;;;;5.36;100.00;97045.72;5076804;28;20059;-82
2024/01/03 00:50:14;;;;;;;22.50;10.75;;;;;;;5.55;100.00;97041.22;5077553;28;20034;-81
2024/01/03 00:52:40;;;;;;;29.63;12.50;;;;;;;5.76;100.00;97042.78;5064812;28;20487;-83
2024/01/03 00:55:08;;;;;;;19.65;8.95;;;;;;;6.03;100.00;97051.16;5093943;28;20035;-84
2024/01/03 00:57:34;;;;;;;15.45;7.75;;;;;;;6.28;100.00;97040.97;5076895;28;20032;-83
2024/01/03 01:00:00;;;;;;;15.00;5.40;;;;;;;6.54;100.00;97037.78;5076975;28;20084;-84
2024/01/03 01:02:25;;;;;;;14.10;7.15;;;;;;;6.82;100.00;97034.47;5076705;28;20028;-82
2024/01/03 01:04:51;;;;;;;18.42;7.75;;;;;;;7.01;100.00;97029.81;5093380;28;20023;-82
2024/01/03 01:07:17;;;;;;;9.00;4.60;;;;;;;7.31;100.00;97026.38;5076834;28;20549;-83
2024/01/03 01:09:42;;;;;;;10.95;6.18;;;;;;;7.43;100.00;97031.00;5076414;28;20028;-82
2024/01/03 01:12:16;;;;;;;11.85;5.95;;;;;;;7.70;100.00;97029.38;5077006;28;20035;-82
2024/01/03 01:14:41;;;;;;;7.82;3.92;;;;;;;7.93;100.00;97025.38;5088966;28;20054;-82
2024/01/03 01:17:16;;;;;;;9.00;4.85;;;;;;;8.04;100.00;97020.25;5093525;28;20456;-82
2024/01/03 01:19:42;;;;;;;7.53;4.82;;;;;;;8.07;100.00;97009.41;5077656;28;20027;-84
2024/01/03 01:22:07;;;;;;;14.13;7.30;;;;;;;8.19;100.00;97030.81;5093603;28;20030;-83
2024/01/03 01:24:33;;;;;;;17.23;9.15;;;;;;;8.05;100.00;97009.50;5093370;28;20383;-83
2024/01/03 01:26:59;;;;;;;16.40;7.90;;;;;;;7.98;100.00;97010.81;5076490;28;20023;-83
2024/01/03 01:29:24;;;;;;;23.10;11.07;;;;;;;8.15;100.00;97010.66;5093025;28;20115;-83
2024/01/03 01:31:50;;;;;;;34.22;15.05;;;;;;;8.15;100.00;96999.16;5076380;28;20023;-83
2024/01/03 01:34:15;;;;;;;31.40;12.90;;;;;;;8.12;100.00;97000.19;5076483;28;20111;-82
2024/01/03 01:36:42;;;;;;;24.63;12.10;;;;;;;8.01;100.00;96997.31;5079329;28;20023;-82
2024/01/03 01:39:08;;;;;;;15.10;8.02;;;;;;;7.94;100.00;96995.97;5099568;27;20054;-82
2024/01/03 01:41:33;;;;;;;13.00;5.93;;;;;;;8.07;100.00;97007.59;5087054;27;20054;-83
2024/01/03 01:43:59;;;;;;;21.05;7.32;;;;;;;8.07;100.00;97010.25;5089024;27;20490;-82
2024/01/03 01:46:24;;;;;;;14.73;8.05;;;;;;;8.04;100.00;97013.13;5088347;28;20035;-82
2024/01/03 01:48:50;;;;;;;18.35;9.15;;;;;;;7.96;100.00;97017.19;5101261;28;20027;-83
2024/01/03 01:51:16;;;;;;;15.52;6.78;;;;;;;8.00;100.00;97008.91;5080474;28;20391;-84
2024/01/03 01:53:42;;;;;;;8.05;4.53;;;;;;;8.04;100.00;97012.25;5092701;27;20023;-83
2024/01/03 01:56:10;;;;;;;7.20;3.70;;;;;;;8.10;100.00;97007.41;5092821;27;20194;-84
2024/01/03 01:58:38;;;;;;;12.20;5.43;;;;;;;8.13;100.00;97006.38;5084065;27;20038;-82
2024/01/03 02:01:03;;;;;;;7.75;4.53;;;;;;;8.15;100.00;97000.00;5088844;27;20057;-83
2024/01/03 02:03:29;;;;;;;7.18;4.65;;;;;;;8.28;100.00;97005.47;5096295;28;20034;-83
2024/01/03 02:05:55;;;;;;;8.27;4.38;;;;;;;8.37;100.00;97009.34;5084201;28;20506;-83
2024/01/03 02:08:22;;;;;;;10.93;5.20;;;;;;;8.40;100.00;97014.53;5090909;27;20495;-83
2024/01/03 02:10:47;;;;;;;6.72;3.80;;;;;;;8.45;100.00;97012.41;5091428;27;20399;-83
2024/01/03 02:13:13;;;;;;;11.15;6.18;;;;;;;8.41;100.00;97008.22;5095999;27;20015;-83
2024/01/03 02:15:38;;;;;;;9.75;4.43;;;;;;;8.36;100.00;96999.66;5094851;28;20529;-84
2024/01/03 02:18:08;;;;;;;17.92;8.05;;;;;;;8.34;100.00;97010.41;5088181;28;20020;-83
2024/01/03 02:20:35;;;;;;;13.50;7.88;;;;;;;8.27;100.00;97018.84;5092523;27;20035;-83
2024/01/03 02:23:01;;;;;;;14.38;6.53;;;;;;;8.25;100.00;97012.75;5105007;28;20060;-84
2024/01/03 02:25:27;;;;;;;8.82;4.40;;;;;;;8.19;100.00;97000.66;5092433;27;20077;-83
2024/01/03 02:28:54;;;;;;;;;;;;;;;;;;;;;
2024/01/03 02:31:42;;;;;;;9.93;5.55;;;;;;;8.29;100.00;97011.66;4971295;28;20121;-82
2024/01/03 02:34:08;;;;;;;10.88;5.78;;;;;;;8.14;100.00;97005.44;5003407;28;20075;-81
2024/01/03 02:36:34;;;;;;;14.65;6.15;;;;;;;8.02;100.00;97001.72;5043456;28;20126;-85
2024/01/03 02:39:07;;;;;;;12.30;5.85;;;;;;;7.98;100.00;97008.16;5095340;27;20387;-84
2024/01/03 02:41:33;;;;;;;10.65;5.70;;;;;;;7.85;100.00;97011.63;5101797;28;20123;-81
2024/01/03 02:44:38;;;;;;;11.88;5.85;;;;;;;7.74;100.00;97014.94;5082948;27;20135;-81
2024/01/03 02:47:10;;;;;;;9.88;5.15;;;;;;;7.34;100.00;96967.69;5060748;28;20031;-82
2024/01/03 02:49:40;;;;;;;;;;;;;;;7.58;100.00;97008.81;5100783;27;20046;-82
2024/01/03 02:52:06;;;;;;;7.85;4.75;;;;;;;7.53;100.00;96994.94;5096858;27;19919;-83
2024/01/03 02:54:31;;;;;;;11.88;5.38;;;;;;;7.43;100.00;97009.72;5089946;28;20559;-82
2024/01/03 02:56:57;;;;;;;9.75;5.55;;;;;;;7.26;100.00;96991.22;5082798;27;20035;-83
2024/01/03 02:59:25;;;;;;;9.63;5.40;;;;;;;7.27;100.00;96992.91;5099704;27;20031;-83
2024/01/03 03:01:51;;;;;;;9.15;5.18;;;;;;;7.23;100.00;97010.03;5085685;27;20483;-82
2024/01/03 03:04:17;;;;;;;11.75;5.40;;;;;;;7.13;100.00;97009.69;5108973;28;20110;-82
2024/01/03 03:06:42;;;;;;;10.07;5.78;;;;;;;7.06;100.00;97006.50;5088442;27;20085;-82
2024/01/03 03:09:08;;;;;;;9.00;4.88;;;;;;;7.01;100.00;96997.09;5096196;27;20055;-83
2024/01/03 03:11:33;;;;;;;9.23;4.40;;;;;;;7.02;100.00;97004.09;5091307;27;20078;-82
2024/01/03 03:13:59;;;;;;;9.43;4.55;;;;;;;7.08;100.00;97009.06;5097488;28;20027;-82
2024/01/03 03:16:25;;;;;;;9.38;5.10;;;;;;;7.05;100.00;97004.78;5087350;28;20027;-83
2024/01/03 03:18:51;;;;;;;18.75;7.57;;;;;;;7.04;100.00;97013.69;5102097;27;20016;-83
2024/01/03 03:21:17;;;;;;;15.10;7.50;;;;;;;6.98;100.00;97008.72;5112378;28;20034;-83
2024/01/03 03:23:42;;;;;;;14.90;7.40;;;;;;;6.94;100.00;97009.84;5096958;27;20506;-83
2024/01/03 03:26:10;;;;;;;13.57;7.38;;;;;;;6.90;100.00;97002.13;5078925;28;20042;-83
2024/01/03 03:28:36;;;;;;;14.85;6.20;;;;;;;6.88;100.00;97002.22;5085353;27;20019;-83
2024/01/03 03:31:03;;;;;;;20.40;8.88;;;;;;;6.80;100.00;96991.16;5091427;27;20031;-83
2024/01/03 03:33:31;;;;;;;16.77;9.15;;;;;;;6.86;100.00;97008.59;5089606;27;20521;-82
2024/01/03 03:35:57;;;;;;;24.75;11.40;;;;;;;6.76;100.00;96997.59;5110050;27;20406;-82
2024/01/03 03:38:22;;;;;;;16.73;9.18;;;;;;;6.77;100.00;96988.66;5083218;28;20028;-84
2024/01/03 03:40:48;;;;;;;24.73;12.15;;;;;;;6.74;100.00;96998.59;5060401;28;20058;-82
2024/01/03 03:43:14;;;;;;;14.60;7.47;;;;;;;6.79;100.00;96985.94;5046721;28;20024;-81
2024/01/03 03:45:39;;;;;;;19.88;8.95;;;;;;;7.04;100.00;96984.44;5043529;28;20074;-82
2024/01/03 03:48:05;;;;;;;21.20;10.02;;;;;;;7.18;100.00;96990.78;5055150;28;20069;-82
2024/01/03 03:50:31;;;;;;;22.23;10.82;;;;;;;7.17;100.00;96981.13;5046668;28;20495;-83
2024/01/03 03:52:57;;;;;;;23.58;11.70;;;;;;;7.12;100.00;96972.53;5041205;28;20059;-83
2024/01/03 03:55:22;;;;;;;23.02;9.93;;;;;;;7.14;100.00;96983.94;5048434;28;20039;-82
2024/01/03 03:57:48;;;;;;;14.93;7.40;;;;;;;7.20;100.00;96975.63;5047860;28;20381;-82
2024/01/03 04:00:14;;;;;;;7.43;3.80;;;;;;;7.31;100.00;96970.53;5046439;28;20028;-82
2024/01/03 04:02:40;;;;;;;8.88;4.25;;;;;;;7.39;100.00;96962.94;5043302;28;20029;-83
2024/01/03 04:05:06;;;;;;;6.93;3.75;;;;;;;7.47;100.00;96971.34;5045812;28;20097;-83
2024/01/03 04:07:31;;;;;;;15.43;6.80;;;;;;;7.61;100.00;96976.69;5038046;28;20032;-82
2024/01/03 04:09:57;;;;;;;34.55;13.13;;;;;;;7.60;100.00;96983.81;5045823;28;20024;-81
2024/01/03 04:12:23;;;;;;;15.90;7.15;;;;;;;7.50;100.00;96988.00;5084333;28;20122;-83
2024/01/03 04:14:49;;;;;;;29.08;12.77;;;;;;;7.45;100.00;96989.19;5046832;28;20495;-83
2024/01/03 04:17:15;;;;;;;29.17;13.80;;;;;;;7.43;100.00;96996.41;5057995;28;20028;-82
2024/01/03 04:19:41;;;;;;;17.10;9.48;;;;;;;7.17;100.00;96992.59;5063585;28;20036;-82
2024/01/03 04:22:07;;;;;;;14.73;6.35;;;;;;;7.22;100.00;96995.84;5039723;28;20484;-83
2024/01/03 04:24:32;;;;;;;9.63;5.18;;;;;;;7.20;100.00;96988.91;5037396;28;20024;-82
2024/01/03 04:26:58;;;;;;;10.38;5.28;;;;;;;7.20;100.00;96980.94;5088552;28;20047;-84
2024/01/03 04:29:23;;;;;;;13.23;6.72;;;;;;;7.20;100.00;96980.94;5049008;28;20024;-82
2024/01/03 04:31:49;;;;;;;16.95;6.78;;;;;;;7.12;100.00;96969.88;5057881;28;20027;-83
2024/01/03 04:34:15;;;;;;;18.17;8.20;;;;;;;7.06;100.00;96969.28;5056096;28;20478;-83
2024/01/03 04:36:40;;;;;;;14.82;7.50;;;;;;;7.03;100.00;96960.63;5042460;28;20032;-83
2024/01/03 04:39:06;;;;;;;15.35;7.30;;;;;;;6.98;100.00;96968.84;5056925;28;20020;-79
2024/01/03 04:41:31;;;;;;;15.05;8.07;;;;;;;6.99;100.00;96977.69;5073951;28;20031;-72
2024/01/03 04:43:57;;;;;;;13.98;7.70;;;;;;;7.00;100.00;96984.72;5081501;28;20016;-70
2024/01/03 04:46:22;;;;;;;22.75;9.73;;;;;;;6.94;100.00;96995.72;5072997;28;20031;-72
2024/01/03 04:48:48;;;;;;;21.92;9.57;;;;;;;6.89;100.00;96992.47;5087407;28;20024;-71
2024/01/03 04:51:15;;;;;;;26.65;12.10;;;;;;;6.93;100.00;97001.94;5091022;28;20043;-71
2024/01/03 04:53:41;;;;;;;25.20;11.70;;;;;;;6.97;100.00;97011.47;5073048;28;20024;-73
2024/01/03 04:56:06;;;;;;;29.45;11.43;;;;;;;6.88;100.00;97018.19;5068260;28;20024;-72
2024/01/03 04:58:32;;;;;;;36.80;14.27;;;;;;;6.85;100.00;97017.50;5072779;28;20419;-71
2024/01/03 05:00:58;;;;;;;25.27;11.23;;;;;;;6.88;100.00;97027.94;5073148;28;20067;-71
2024/01/03 05:03:23;;;;;;;26.90;10.55;;;;;;;6.86;100.00;97025.38;5090747;28;20093;-72
2024/01/03 05:05:49;;;;;;;19.52;10.68;;;;;;;6.85;100.00;97023.66;5089855;28;20032;-70
2024/01/03 05:08:15;;;;;;;21.73;10.43;;;;;;;6.78;100.00;97021.41;5089755;28;20034;-70
2024/01/03 05:10:41;;;;;;;20.23;10.93;;;;;;;6.69;100.00;97021.94;5090096;28;20042;-70
2024/01/03 05:13:07;;;;;;;37.15;17.85;;;;;;;6.68;100.00;97031.69;5085364;28;20434;-71
2024/01/03 05:15:32;;;;;;;29.33;14.98;;;;;;;6.71;100.00;97025.34;5055714;28;20061;-70
2024/01/03 05:17:58;;;;;;;59.47;26.63;;;;;;;6.75;100.00;97017.13;5056123;28;20398;-70
2024/01/03 05:20:23;;;;;;;33.22;15.15;;;;;;;6.83;100.00;97025.53;5074234;28;20035;-72
2024/01/03 05:22:49;;;;;;;32.13;15.07;;;;;;;6.88;100.00;97023.50;5090648;28;20024;-70
2024/01/03 05:25:15;;;;;;;44.15;20.80;;;;;;;6.90;100.00;97026.06;5090448;28;20074;-71
2024/01/03 05:27:40;;;;;;;41.60;20.70;;;;;;;6.89;100.00;97030.50;5090788;28;20027;-72
2024/01/03 05:30:06;;;;;;;41.50;19.77;;;;;;;7.01;100.00;97027.16;5060499;28;20030;-70
2024/01/03 05:32:32;;;;;;;42.47;21.67;;;;;;;7.09;100.00;97019.63;5079378;28;20039;-71
2024/01/03 05:34:58;;;;;;;24.38;12.73;;;;;;;7.17;100.00;97018.34;5089504;28;20472;-71
2024/01/03 05:37:23;;;;;;;40.78;19.15;;;;;;;7.22;100.00;97019.78;5090499;28;20108;-72
2024/01/03 05:39:49;;;;;;;27.05;12.95;;;;;;;7.28;100.00;97010.59;5101281;28;20058;-71
2024/01/03 05:42:14;;;;;;;21.25;10.55;;;;;;;7.41;100.00;96999.13;5100696;28;20516;-71
2024/01/03 05:44:40;;;;;;;32.53;15.77;;;;;;;7.53;100.00;97000.25;5095397;28;20027;-72
2024/01/03 05:47:05;;;;;;;88.60;43.17;;;;;;;7.54;100.00;96985.97;5122761;28;20106;-71
2024/01/03 05:49:31;;;;;;;20.02;7.95;;;;;;;7.73;100.00;96978.63;5094206;28;20510;-72
2024/01/03 05:51:58;;;;;;;235.35;126.80;;;;;;;7.83;100.00;96970.94;5100872;28;20498;-72
2024/01/03 05:54:24;;;;;;;26.02;13.18;;;;;;;7.90;100.00;96972.28;5075484;28;20034;-71
2024/01/03 05:56:50;;;;;;;45.10;18.55;;;;;;;7.93;100.00;96970.31;5092379;28;20023;-72
2024/01/03 05:59:16;;;;;;;30.38;13.82;;;;;;;7.92;100.00;96959.75;5127099;28;20027;-70
2024/01/03 06:01:41;;;;;;;29.75;14.13;;;;;;;7.92;100.00;96946.44;5119802;28;21688;-72
2024/01/03 06:04:07;;;;;;;36.78;16.90;;;;;;;7.97;100.00;96947.84;5107448;28;20031;-72
2024/01/03 06:06:33;;;;;;;35.40;15.48;;;;;;;8.01;100.00;96965.38;5130733;28;20175;-71
2024/01/03 06:08:58;;;;;;;42.90;22.00;;;;;;;8.01;100.00;96973.34;5126350;28;20035;-70
2024/01/03 06:11:24;;;;;;;23.55;9.95;;;;;;;8.00;100.00;96957.44;5100793;28;20109;-71
2024/01/03 06:13:51;;;;;;;22.83;10.63;;;;;;;8.08;100.00;96956.06;5084039;28;20031;-72
2024/01/03 06:16:17;;;;;;;22.98;10.20;;;;;;;8.08;100.00;96948.06;5126369;28;20019;-71
2024/01/03 06:18:42;;;;;;;20.60;10.73;;;;;;;8.18;100.00;96951.03;5101523;28;20031;-71
2024/01/03 06:21:11;;;;;;;26.55;15.13;;;;;;;8.22;100.00;96946.34;5092786;28;20027;-71
2024/01/03 06:23:38;;;;;;;29.77;15.63;;;;;;;8.21;100.00;96952.63;5096118;28;20035;-70
2024/01/03 06:26:06;;;;;;;27.42;12.40;;;;;;;8.22;100.00;96952.53;5095793;28;20032;-70
2024/01/03 06:28:31;;;;;;;36.85;15.77;;;;;;;8.30;100.00;96954.75;5095847;28;20403;-73
2024/01/03 06:30:57;;;;;;;22.65;10.65;;;;;;;8.35;100.00;96942.84;5100459;27;20027;-74
2024/01/03 06:33:22;;;;;;;18.98;8.77;;;;;;;8.56;100.00;96933.50;5134980;27;20034;-74
2024/01/03 06:35:48;;;;;;;25.00;11.30;;;;;;;8.70;100.00;96948.63;5105101;28;20031;-72
2024/01/03 06:38:13;;;;;;;21.70;9.38;;;;;;;8.78;100.00;96940.13;5101974;27;20570;-71
2024/01/03 06:40:39;;;;;;;42.20;18.63;;;;;;;8.83;100.00;96949.53;5081850;28;20059;-71
2024/01/03 06:43:06;;;;;;;25.38;11.10;;;;;;;8.88;100.00;96952.78;5051652;28;20063;-71
2024/01/03 06:45:31;;;;;;;41.85;19.40;;;;;;;9.00;100.00;96941.31;5050480;28;20072;-73
2024/01/03 06:47:57;;;;;;;40.95;18.63;;;;;;;9.14;100.00;96953.72;5071725;28;20029;-71
2024/01/03 06:50:22;;;;;;;22.35;10.20;;;;;;;9.21;100.00;96971.91;5070576;28;20027;-71
2024/01/03 06:52:48;;;;;;;27.92;16.33;;;;;;;9.44;100.00;96961.53;5073914;28;20523;-71
2024/01/03 06:55:13;;;;;;;13.52;7.20;;;;;;;9.56;100.00;96956.22;5087120;28;20028;-73
2024/01/03 06:57:41;;;;;;;14.95;8.38;;;;;;;9.66;100.00;96943.06;5066099;28;20036;-72
2024/01/03 07:00:07;;;;;;;14.27;6.70;;;;;;;9.80;100.00;96933.19;5046980;28;20085;-71
2024/01/03 07:02:33;;;;;;;14.48;7.47;;;;;;;9.98;100.00;96930.19;5063135;28;20107;-71
2024/01/03 07:04:59;;;;;;;17.63;8.25;;;;;;;10.12;100.00;96946.97;5072989;28;20016;-71
2024/01/03 07:07:24;;;;;;;8.65;3.80;;;;;;;10.14;100.00;96950.44;5062006;28;20020;-72
2024/01/03 07:09:50;;;;;;;7.75;3.92;;;;;;;10.24;100.00;96954.16;5074969;28;20032;-71
2024/01/03 07:12:15;;;;;;;12.38;6.65;;;;;;;10.38;100.00;96955.00;5075093;28;20012;-73
2024/01/03 07:14:46;;;;;;;10.90;5.45;;;;;;;10.43;100.00;96956.38;5049069;28;20114;-70
2024/01/03 07:17:14;;;;;;;13.63;7.45;;;;;;;10.45;100.00;96965.19;5059862;28;20095;-71
2024/01/03 07:19:39;;;;;;;11.60;7.00;;;;;;;10.39;100.00;96957.59;5058512;28;20028;-72
2024/01/03 07:22:05;;;;;;;13.55;6.00;;;;;;;10.37;100.00;96953.31;5084445;28;20602;-71
2024/01/03 07:24:31;;;;;;;16.25;7.80;;;;;;;10.43;100.00;96948.38;5092670;28;20518;-72
2024/01/03 07:26:56;;;;;;;33.97;13.40;;;;;;;10.51;100.00;96967.41;5074752;28;20032;-71
2024/01/03 07:29:22;;;;;;;14.77;7.15;;;;;;;10.54;100.00;96955.63;5092816;28;20028;-72
2024/01/03 07:31:47;;;;;;;17.30;9.43;;;;;;;10.54;100.00;96952.97;5073530;28;20449;-72
2024/01/03 07:34:13;;;;;;;17.40;7.43;;;;;;;10.67;100.00;96957.34;5071852;28;20043;-71
2024/01/03 07:36:39;;;;;;;14.55;8.07;;;;;;;10.74;100.00;96936.31;5054830;28;20028;-72
2024/01/03 07:39:05;;;;;;;12.40;6.60;;;;;;;10.73;100.00;96934.63;5072989;28;20028;-72
2024/01/03 07:41:31;;;;;;;12.52;6.70;;;;;;;10.81;100.00;96934.94;5107609;28;20030;-72
2024/01/03 07:43:57;;;;;;;13.10;6.63;;;;;;;10.89;100.00;96935.22;5094326;28;20063;-73
2024/01/03 07:46:23;;;;;;;7.97;4.68;;;;;;;10.85;100.00;96941.78;5103063;28;20035;-71
2024/01/03 07:48:49;;;;;;;12.68;6.47;;;;;;;10.92;100.00;96928.81;5112321;28;20035;-72
2024/01/03 07:51:18;;;;;;;24.23;11.32;;;;;;;10.91;100.00;96919.06;5112818;28;20131;-71
2024/01/03 07:53:44;;;;;;;9.95;5.18;;;;;;;10.96;100.00;96895.47;5107564;28;20122;-71
2024/01/03 07:56:10;;;;;;;19.05;9.95;;;;;;;11.08;100.00;96891.91;5111188;28;20110;-72
2024/01/03 07:58:35;;;;;;;22.15;11.85;;;;;;;11.15;100.00;96872.59;5111535;28;20031;-72
2024/01/03 08:01:01;;;;;;;25.13;10.95;;;;;;;11.11;100.00;96881.81;5085600;28;20034;-71
2024/01/03 08:03:27;;;;;;;11.23;6.43;;;;;;;11.30;100.00;96887.50;5094118;28;20489;-70
2024/01/03 08:05:55;;;;;;;12.30;6.15;;;;;;;11.45;100.00;96880.13;5086010;28;20316;-72
2024/01/03 08:08:21;;;;;;;15.20;7.05;;;;;;;11.52;100.00;96876.03;5111917;28;20055;-70
2024/01/03 08:10:47;;;;;;;18.30;9.10;;;;;;;11.60;100.00;96870.06;5110806;28;20066;-71
2024/01/03 08:13:12;;;;;;;24.83;11.05;;;;;;;11.62;100.00;96866.31;5095565;28;20027;-71
2024/01/03 08:15:38;;;;;;;12.95;5.78;;;;;;;11.75;100.00;96856.38;5109030;28;20027;-71
2024/01/03 08:18:04;;;;;;;13.57;6.28;;;;;;;11.89;97.10;96858.00;5093815;28;20459;-71
2024/01/03 08:20:29;;;;;;;10.73;5.43;;;;;;;12.03;97.17;96862.28;5095650;28;20032;-70
2024/01/03 08:22:55;;;;;;;4.80;3.17;;;;;;;11.99;97.11;96867.03;5107312;28;20035;-71
2024/01/03 08:25:21;;;;;;;3.92;2.50;;;;;;;12.03;96.91;96871.16;5110063;28;20471;-71
2024/01/03 08:27:46;;;;;;;6.70;3.58;;;;;;;12.03;95.10;96879.19;5110869;28;20123;-72
2024/01/03 08:30:12;;;;;;;5.32;3.25;;;;;;;12.16;94.67;96889.81;5086163;28;20031;-72
2024/01/03 08:32:40;;;;;;;7.07;3.70;;;;;;;12.16;94.08;96879.09;5093703;28;20073;-72
2024/01/03 08:35:06;;;;;;;10.25;5.70;;;;;;;12.21;96.43;96882.28;5091598;28;20023;-71
2024/01/03 08:37:32;;;;;;;6.18;3.65;;;;;;;12.31;90.87;96869.81;5093473;28;20031;-71
2024/01/03 08:39:58;;;;;;;11.60;5.00;;;;;;;12.42;90.51;96878.75;5106893;28;20055;-71
2024/01/03 08:42:24;;;;;;;3.97;2.33;;;;;;;12.41;88.58;96881.53;5093682;28;20047;-71
2024/01/03 08:44:51;;;;;;;4.30;2.95;;;;;;;12.52;86.14;96871.63;5110336;28;20067;-72
2024/01/03 08:47:17;;;;;;;8.77;4.70;;;;;;;12.56;89.80;96884.81;5076804;28;20039;-72
2024/01/03 08:49:44;;;;;;;5.88;3.40;;;;;;;12.61;89.82;96875.44;5110371;28;20483;-71
2024/01/03 08:52:10;;;;;;;9.88;5.57;;;;;;;12.58;93.67;96878.34;5110091;28;20371;-71
2024/01/03 08:54:36;;;;;;;15.25;6.68;;;;;;;12.59;94.55;96876.50;5110196;28;20028;-72
2024/01/03 08:57:01;;;;;;;12.15;6.80;;;;;;;12.52;91.78;96858.22;5101525;28;20146;-71
2024/01/03 08:59:27;;;;;;;7.68;4.32;;;;;;;12.62;92.51;96873.56;5109989;28;20034;-72
2024/01/03 09:01:56;;;;;;;10.68;4.13;;;;;;;12.64;93.75;96868.97;5076397;28;20491;-72
2024/01/03 09:04:22;;;;;;;7.28;3.72;;;;;;;12.62;93.95;96873.56;5093147;28;20523;-72
2024/01/03 09:06:48;;;;;;;10.30;3.60;;;;;;;12.60;94.46;96864.81;5110878;28;20098;-72
2024/01/03 09:09:13;;;;;;;10.25;5.20;;;;;;;12.47;96.55;96860.44;5106285;28;20070;-72
2024/01/03 09:11:41;;;;;;;11.10;4.10;;;;;;;12.50;98.66;96865.56;5092897;28;20058;-71
2024/01/03 09:14:07;;;;;;;10.60;3.38;;;;;;;12.43;97.83;96858.13;5111456;28;20027;-73
2024/01/03 09:16:33;;;;;;;12.18;4.47;;;;;;;12.39;99.43;96854.84;5086424;28;20027;-71
2024/01/03 09:18:59;;;;;;;6.68;3.70;;;;;;;12.31;100.00;96864.47;5105587;28;20080;-71
2024/01/03 09:21:26;;;;;;;5.93;3.28;;;;;;;12.15;100.00;96864.00;5092729;28;20062;-70
2024/01/03 09:23:52;;;;;;;10.05;5.05;;;;;;;12.12;100.00;96838.25;5092772;28;20016;-71
2024/01/03 09:26:22;;;;;;;12.65;4.90;;;;;;;12.13;100.00;96860.56;5092618;28;20023;-71
2024/01/03 09:28:48;;;;;;;6.25;3.50;;;;;;;12.02;100.00;96861.44;5109418;28;20102;-72
2024/01/03 09:31:15;;;;;;;7.20;3.20;;;;;;;12.04;100.00;96853.25;5109850;28;20087;-73
2024/01/03 09:33:40;;;;;;;6.40;3.45;;;;;;;12.12;100.00;96854.34;5108334;28;20424;-73
2024/01/03 09:36:07;;;;;;;11.00;6.35;;;;;;;12.11;100.00;96863.38;5092815;28;20041;-72
2024/01/03 09:38:32;;;;;;;17.50;9.68;;;;;;;12.13;100.00;96861.41;5110045;28;20027;-70
2024/01/03 09:40:58;;;;;;;37.83;18.98;;;;;;;12.03;100.00;96870.31;5101132;28;20043;-73
2024/01/03 09:43:24;;;;;;;36.58;17.23;;;;;;;11.86;100.00;96879.66;5092530;28;20549;-72
2024/01/03 09:45:50;;;;;;;25.67;11.73;;;;;;;11.78;100.00;96872.22;5092566;28;20120;-71
2024/01/03 09:48:15;;;;;;;27.65;13.02;;;;;;;11.81;100.00;96855.06;5092636;28;20023;-74
2024/01/03 09:50:41;;;;;;;14.70;7.05;;;;;;;11.91;100.00;96856.03;5075546;28;20051;-71
2024/01/03 09:53:08;;;;;;;15.57;8.35;;;;;;;12.00;100.00;96854.50;5094096;28;20499;-71
2024/01/03 09:55:34;;;;;;;7.60;3.80;;;;;;;12.02;98.87;96839.97;5106286;28;20399;-72
2024/01/03 09:58:00;;;;;;;9.60;5.00;;;;;;;12.13;100.00;96849.84;5096015;28;20019;-71
2024/01/03 10:00:30;;;;;;;10.02;4.00;;;;;;;12.14;100.00;96835.47;5113357;28;20032;-71
2024/01/03 10:03:06;;;;;;;9.68;3.75;;;;;;;12.22;100.00;96844.59;5114256;27;20471;-71
2024/01/03 10:05:32;;;;;;;4.75;2.90;;;;;;;12.29;100.00;96840.47;5113375;28;20285;-72
2024/01/03 10:07:58;;;;;;;6.53;3.13;;;;;;;12.38;99.98;96831.69;5110577;28;20112;-71
2024/01/03 10:10:34;;;;;;;6.95;3.50;;;;;;;12.44;98.97;96828.50;5079149;28;20490;-72
2024/01/03 10:13:15;;;;;;;9.77;4.30;;;;;;;12.51;100.00;96823.50;5087727;28;20463;-73
2024/01/03 10:15:43;;;;;;;8.18;4.80;;;;;;;12.53;100.00;96824.22;5104594;28;20051;-71
2024/01/03 10:18:09;;;;;;;15.23;6.47;;;;;;;12.40;99.12;96821.66;5112963;28;20031;-71
2024/01/03 10:20:35;;;;;;;7.45;4.35;;;;;;;12.44;98.07;96812.41;5112852;28;20042;-72
2024/01/03 10:23:06;;;;;;;11.45;5.82;;;;;;;12.52;100.00;96800.22;5114081;28;20403;-71
2024/01/03 10:25:32;;;;;;;10.27;5.97;;;;;;;12.54;100.00;96817.03;5096313;28;20122;-71
2024/01/03 10:28:00;;;;;;;5.85;3.83;;;;;;;12.47;95.27;96801.44;5104288;28;20023;-70
2024/01/03 10:30:25;;;;;;;19.13;11.40;;;;;;;12.48;97.56;96792.41;5107606;28;20016;-71
2024/01/03 10:33:01;;;;;;;32.78;15.85;;;;;;;12.54;99.66;96801.78;5114034;28;20026;-71
2024/01/03 10:35:31;;;;;;;17.17;7.85;;;;;;;12.58;100.00;96802.38;5110227;28;20050;-71
2024/01/03 10:37:59;;;;;;;8.85;4.82;;;;;;;12.58;97.01;96792.50;5097182;28;20037;-71
2024/01/03 10:40:26;;;;;;;5.95;4.10;;;;;;;12.56;96.89;96782.88;5113766;28;20415;-71
2024/01/03 10:42:52;;;;;;;5.85;2.85;;;;;;;12.58;93.13;96778.25;5095569;28;20027;-70
2024/01/03 10:45:18;;;;;;;7.68;2.72;;;;;;;12.64;92.54;96775.06;5095674;28;20030;-71
2024/01/03 10:47:44;;;;;;;20.25;5.63;;;;;;;12.54;92.79;96779.47;5113738;28;20486;-71
2024/01/03 10:50:13;;;;;;;5.00;2.40;;;;;;;12.47;92.68;96781.78;5101130;28;20031;-71
2024/01/03 10:52:42;;;;;;;10.82;4.95;;;;;;;12.59;91.77;96782.63;5111069;28;20028;-72
2024/01/03 10:55:24;;;;;;;4.45;2.47;;;;;;;12.61;92.44;96770.81;5095697;28;20088;-72
2024/01/03 10:57:57;;;;;;;20.48;8.00;;;;;;;12.65;94.01;96777.59;5113498;28;20110;-69
2024/01/03 11:00:30;;;;;;;26.20;9.38;;;;;;;12.57;96.91;96773.84;5099573;28;20057;-70
2024/01/03 11:03:18;;;;;;;8.82;3.70;;;;;;;12.61;97.19;96769.94;5092784;28;20078;-72
2024/01/03 11:06:02;;;;;;;7.03;3.85;;;;;;;12.57;98.02;96773.84;5085554;28;20031;-71
2024/01/03 11:08:36;;;;;;;7.03;3.13;;;;;;;12.47;98.05;96753.16;5113493;28;20496;-72
2024/01/03 11:11:03;;;;;;;15.52;5.70;;;;;;;12.60;97.95;96774.44;5112005;28;20022;-72
2024/01/03 11:13:33;;;;;;;5.95;3.50;;;;;;;12.57;99.23;96773.84;5094851;28;20137;-71
2024/01/03 11:16:00;;;;;;;11.35;4.82;;;;;;;12.49;100.00;96766.41;5111668;28;20057;-70
2024/01/03 11:18:41;;;;;;;9.23;4.10;;;;;;;12.57;100.00;96782.75;5089961;28;20032;-72
2024/01/03 11:21:35;;;;;;;7.75;4.30;;;;;;;12.52;100.00;96786.81;5093415;28;20032;-70
2024/01/03 11:24:06;;;;;;;14.02;7.53;;;;;;;12.47;100.00;96790.69;5104458;28;20043;-71